createdAt,value
2018-01-11T00:00:43.485Z,22.70
2018-01-11T00:03:14.575Z,19.37
2018-01-11T00:05:44.829Z,19.40
2018-01-11T00:08:15.000Z,17.10
2018-01-11T00:10:45.079Z,20.73
2018-01-11T00:13:15.318Z,16.40
2018-01-11T00:15:45.567Z,18.97
2018-01-11T00:18:16.731Z,18.27
2018-01-11T00:20:47.783Z,16.17
2018-01-11T00:23:18.758Z,19.60
2018-01-11T00:25:49.051Z,15.50
2018-01-11T00:28:21.156Z,20.53
2018-01-11T00:30:51.102Z,18.67
2018-01-11T00:33:21.912Z,23.30
2018-01-11T00:35:52.259Z,16.93
2018-01-11T00:38:22.391Z,20.67
2018-01-11T00:40:52.558Z,18.53
2018-01-11T00:43:23.660Z,20.80
2018-01-11T00:45:54.267Z,20.57
2018-01-11T00:48:24.634Z,17.13
2018-01-11T00:50:54.594Z,24.00
2018-01-11T00:53:24.920Z,15.40
2018-01-11T00:55:55.579Z,18.53
2018-01-11T00:58:26.134Z,22.77
2018-01-11T01:00:56.759Z,19.70
2018-01-11T01:03:27.293Z,19.13
2018-01-11T01:05:57.768Z,25.53
2018-01-11T01:08:28.005Z,24.00
2018-01-11T01:12:27.719Z,20.63
2018-01-11T01:15:01.977Z,17.67
2018-01-11T01:17:36.060Z,21.93
2018-01-11T01:20:07.297Z,19.60
2018-01-11T01:22:38.213Z,20.73
2018-01-11T01:25:09.999Z,20.10
2018-01-11T01:27:42.831Z,16.67
2018-01-11T01:30:13.099Z,23.53
2018-01-11T01:32:43.940Z,19.70
2018-01-11T01:35:14.260Z,17.97
2018-01-11T01:37:44.986Z,21.37
2018-01-11T01:40:15.759Z,15.87
2018-01-11T01:42:50.965Z,23.90
2018-01-11T01:45:21.467Z,21.30
2018-01-11T01:47:52.299Z,19.93
2018-01-11T01:50:22.605Z,24.63
2018-01-11T01:53:07.400Z,18.37
2018-01-11T01:55:37.739Z,23.53
2018-01-11T01:58:08.500Z,26.03
2018-01-11T02:00:38.816Z,20.50
2018-01-11T02:03:09.010Z,20.40
2018-01-11T02:05:39.601Z,22.90
2018-01-11T02:08:10.517Z,19.87
2018-01-11T02:10:41.529Z,20.87
2018-01-11T02:13:11.924Z,24.43
2018-01-11T02:15:42.228Z,22.77
2018-01-11T02:18:12.579Z,20.63
2018-01-11T02:20:42.993Z,17.90
2018-01-11T02:23:13.380Z,20.77
2018-01-11T02:25:43.686Z,18.93
2018-01-11T02:28:14.749Z,20.00
2018-01-11T02:30:45.007Z,20.67
2018-01-11T02:33:15.297Z,21.53
2018-01-11T02:35:45.763Z,21.10
2018-01-11T02:38:16.541Z,21.57
2018-01-11T02:40:47.101Z,18.73
2018-01-11T02:43:17.418Z,19.73
2018-01-11T02:45:47.804Z,24.93
2018-01-11T02:48:18.215Z,28.27
2018-01-11T02:50:48.996Z,20.60
2018-01-11T02:53:19.270Z,26.97
2018-01-11T02:55:49.925Z,16.20
2018-01-11T02:58:21.089Z,19.03
2018-01-11T03:00:51.466Z,22.40
2018-01-11T03:03:21.656Z,18.50
2018-01-11T03:05:53.410Z,14.90
2018-01-11T03:08:24.356Z,16.03
2018-01-11T03:12:25.172Z,20.70
2018-01-11T03:14:56.043Z,19.40
2018-01-11T03:17:26.256Z,16.37
2018-01-11T03:19:57.364Z,19.53
2018-01-11T03:22:27.707Z,26.53
2018-01-11T03:24:58.159Z,26.67
2018-01-11T03:27:29.087Z,17.93
2018-01-11T03:30:00.340Z,20.67
2018-01-11T03:32:30.663Z,21.13
2018-01-11T03:35:00.764Z,17.07
2018-01-11T03:37:31.642Z,18.17
2018-01-11T03:40:01.794Z,23.77
2018-01-11T03:42:33.332Z,24.13
2018-01-11T03:45:03.705Z,25.17
2018-01-11T03:47:34.311Z,22.10
2018-01-11T03:50:05.332Z,18.67
2018-01-11T03:52:35.992Z,20.80
2018-01-11T03:55:07.107Z,25.47
2018-01-11T03:57:37.454Z,20.50
2018-01-11T04:00:08.116Z,27.70
2018-01-11T04:02:38.190Z,24.07
2018-01-11T04:05:08.556Z,23.30
2018-01-11T04:07:38.800Z,18.10
2018-01-11T04:10:09.190Z,21.20
2018-01-11T04:12:39.447Z,21.53
2018-01-11T04:15:10.356Z,18.50
2018-01-11T04:17:40.576Z,22.87
2018-01-11T04:20:10.848Z,19.60
2018-01-11T04:22:41.355Z,19.20
2018-01-11T04:25:11.672Z,22.33
2018-01-11T04:27:42.515Z,22.30
2018-01-11T04:30:12.740Z,24.33
2018-01-11T04:32:42.895Z,25.20
2018-01-11T04:35:13.385Z,25.60
2018-01-11T04:37:43.366Z,21.43
2018-01-11T04:40:13.463Z,19.57
2018-01-11T04:42:44.254Z,23.30
2018-01-11T04:45:14.528Z,26.37
2018-01-11T04:47:45.258Z,21.43
2018-01-11T04:50:15.584Z,26.30
2018-01-11T04:52:46.346Z,22.60
2018-01-11T04:55:17.228Z,27.13
2018-01-11T04:57:47.696Z,29.80
2018-01-11T05:00:18.075Z,23.93
2018-01-11T05:02:48.565Z,24.70
2018-01-11T05:05:19.178Z,22.67
2018-01-11T05:07:50.025Z,32.23
2018-01-11T05:10:20.424Z,24.87
2018-01-11T05:12:51.377Z,31.60
2018-01-11T05:15:21.755Z,23.33
2018-01-11T05:17:52.712Z,23.27
2018-01-11T05:20:23.063Z,34.50
2018-01-11T05:22:54.355Z,27.87
2018-01-11T05:25:25.144Z,26.77
2018-01-11T05:27:56.190Z,27.03
2018-01-11T05:30:26.168Z,26.80
2018-01-11T05:32:56.934Z,24.57
2018-01-11T05:35:28.188Z,22.57
2018-01-11T05:37:58.409Z,22.43
2018-01-11T05:40:28.522Z,23.70
2018-01-11T05:42:59.332Z,31.10
2018-01-11T05:45:29.411Z,23.00
2018-01-11T05:49:02.288Z,23.60
2018-01-11T05:51:32.885Z,24.60
2018-01-11T05:54:03.726Z,28.03
2018-01-11T05:57:37.526Z,26.23
2018-01-11T06:00:07.573Z,25.93
2018-01-11T06:02:37.746Z,21.83
2018-01-11T06:05:08.495Z,27.20
2018-01-11T06:07:39.250Z,23.87
2018-01-11T06:10:09.267Z,22.50
2018-01-11T06:12:39.265Z,22.73
2018-01-11T06:15:09.400Z,22.37
2018-01-11T06:18:42.128Z,22.33
2018-01-11T06:21:12.111Z,22.73
2018-01-11T06:23:42.242Z,24.10
2018-01-11T06:26:12.328Z,22.43
2018-01-11T06:28:43.486Z,24.43
2018-01-11T06:31:13.693Z,27.23
2018-01-11T06:33:44.901Z,20.83
2018-01-11T06:36:15.096Z,22.73
2018-01-11T06:38:49.187Z,20.53
2018-01-11T06:41:23.433Z,20.40
2018-01-11T06:44:00.688Z,21.50
2018-01-11T06:46:33.555Z,22.10
2018-01-11T06:49:04.150Z,26.40
2018-01-11T06:51:36.426Z,20.30
2018-01-11T06:54:06.592Z,21.20
2018-01-11T06:56:37.686Z,23.33
2018-01-11T06:59:08.133Z,24.60
2018-01-11T07:01:38.285Z,30.10
2018-01-11T07:04:08.455Z,27.83
2018-01-11T07:06:38.715Z,25.10
2018-01-11T07:09:09.915Z,24.87
2018-01-11T07:11:39.921Z,23.07
2018-01-11T07:14:10.517Z,24.17
2018-01-11T07:16:40.705Z,21.03
2018-01-11T07:19:10.862Z,22.83
2018-01-11T07:21:42.322Z,21.10
2018-01-11T07:24:12.597Z,28.03
2018-01-11T07:26:42.994Z,21.20
2018-01-11T07:29:13.904Z,18.03
2018-01-11T07:31:44.035Z,22.60
2018-01-11T07:34:14.186Z,24.60
2018-01-11T07:36:45.007Z,16.93
2018-01-11T07:39:15.163Z,18.70
2018-01-11T07:41:46.050Z,24.87
2018-01-11T07:44:16.140Z,22.60
2018-01-11T07:46:46.369Z,20.23
2018-01-11T07:49:16.890Z,17.83
2018-01-11T07:51:47.340Z,20.50
2018-01-11T07:54:17.731Z,21.07
2018-01-11T07:56:48.666Z,19.77
2018-01-11T07:59:19.488Z,21.83
2018-01-11T08:01:50.825Z,23.00
2018-01-11T08:04:20.969Z,19.83
2018-01-11T08:06:51.040Z,21.80
2018-01-11T08:09:21.256Z,20.90
2018-01-11T08:11:51.347Z,26.63
2018-01-11T08:14:22.381Z,25.23
2018-01-11T08:16:52.496Z,22.60
2018-01-11T08:19:22.682Z,22.00
2018-01-11T08:21:53.568Z,26.70
2018-01-11T08:24:23.751Z,28.03
2018-01-11T08:26:54.568Z,20.63
2018-01-11T08:29:25.197Z,29.13
2018-01-11T08:31:56.065Z,29.63
2018-01-11T08:34:26.289Z,27.57
2018-01-11T08:36:56.402Z,33.40
2018-01-11T08:39:27.403Z,33.83
2018-01-11T08:41:57.768Z,35.00
2018-01-11T08:44:28.161Z,26.10
2018-01-11T08:46:59.441Z,30.27
2018-01-11T08:49:30.376Z,33.63
2018-01-11T08:52:02.138Z,31.80
2018-01-11T08:54:32.268Z,34.70
2018-01-11T08:57:02.622Z,36.30
2018-01-11T08:59:33.007Z,36.50
2018-01-11T09:02:03.100Z,37.37
2018-01-11T09:04:33.229Z,41.93
2018-01-11T09:07:04.888Z,41.13
2018-01-11T09:09:36.596Z,34.93
2018-01-11T09:12:06.877Z,38.83
2018-01-11T09:14:37.983Z,39.03
2018-01-11T09:17:08.499Z,31.60
2018-01-11T09:19:39.594Z,28.93
2018-01-11T09:22:09.927Z,34.73
2018-01-11T09:24:40.400Z,35.50
2018-01-11T09:27:10.469Z,37.30
2018-01-11T09:29:40.933Z,45.80
2018-01-11T09:32:11.259Z,53.20
2018-01-11T09:34:42.407Z,50.00
2018-01-11T09:37:14.453Z,38.20
2018-01-11T09:39:44.633Z,37.50
2018-01-11T09:42:14.992Z,30.20
2018-01-11T09:44:45.736Z,31.00
2018-01-11T09:47:15.955Z,36.13
2018-01-11T09:49:46.185Z,34.13
2018-01-11T09:52:16.487Z,31.27
2018-01-11T09:54:46.744Z,37.33
2018-01-11T09:57:16.894Z,34.80
2018-01-11T09:59:47.179Z,33.23
2018-01-11T10:02:17.292Z,29.50
2018-01-11T10:04:47.817Z,30.60
2018-01-11T10:07:18.113Z,34.23
2018-01-11T10:09:48.558Z,32.23
2018-01-11T10:12:18.661Z,32.90
2018-01-11T10:14:48.980Z,30.87
2018-01-11T10:17:19.347Z,38.27
2018-01-11T10:19:49.873Z,30.63
2018-01-11T10:22:20.001Z,30.80
2018-01-11T10:24:50.340Z,27.73
2018-01-11T10:27:21.251Z,32.10
2018-01-11T10:29:51.762Z,31.00
2018-01-11T10:32:22.042Z,30.20
2018-01-11T10:34:53.001Z,31.40
2018-01-11T10:37:23.545Z,32.70
2018-01-11T10:39:53.624Z,26.50
2018-01-11T10:42:24.547Z,29.33
2018-01-11T10:44:54.965Z,27.30
2018-01-11T10:47:25.490Z,27.10
2018-01-11T10:49:56.034Z,28.00
2018-01-11T10:52:26.676Z,35.50
2018-01-11T10:54:56.960Z,30.23
2018-01-11T10:57:27.088Z,40.40
2018-01-11T10:59:57.435Z,37.00
2018-01-11T11:03:00.043Z,32.50
2018-01-11T11:05:30.316Z,30.80
2018-01-11T11:08:00.639Z,34.97
2018-01-11T11:10:31.241Z,56.43
2018-01-11T11:13:02.489Z,32.30
2018-01-11T11:15:32.732Z,28.67
2018-01-11T11:18:03.065Z,29.43
2018-01-11T11:20:34.308Z,36.87
2018-01-11T11:23:05.279Z,32.37
2018-01-11T11:25:35.543Z,39.00
2018-01-11T11:28:06.508Z,31.23
2018-01-11T11:30:37.226Z,39.90
2018-01-11T11:33:07.548Z,30.03
2018-01-11T11:35:37.846Z,30.37
2018-01-11T11:38:08.190Z,30.27
2018-01-11T11:40:38.876Z,33.60
2018-01-11T11:43:09.804Z,34.50
2018-01-11T11:45:39.975Z,38.80
2018-01-11T11:48:10.106Z,28.37
2018-01-11T11:50:40.265Z,29.07
2018-01-11T11:53:11.490Z,33.80
2018-01-11T11:55:42.820Z,28.90
2018-01-11T11:58:13.847Z,29.57
2018-01-11T12:00:44.051Z,32.50
2018-01-11T12:03:14.395Z,33.87
2018-01-11T12:05:44.503Z,29.80
2018-01-11T12:08:15.041Z,28.23
2018-01-11T12:10:45.205Z,27.67
2018-01-11T12:13:15.459Z,41.80
2018-01-11T12:15:45.706Z,31.47
2018-01-11T12:18:16.768Z,33.10
2018-01-11T12:20:47.127Z,26.27
2018-01-11T12:23:18.146Z,28.83
2018-01-11T12:25:50.683Z,27.93
2018-01-11T12:28:21.827Z,25.43
2018-01-11T12:30:52.100Z,29.27
2018-01-11T12:33:22.437Z,31.50
2018-01-11T12:35:53.455Z,33.03
2018-01-11T12:38:23.842Z,32.60
2018-01-11T12:40:54.200Z,34.33
2018-01-11T12:43:26.995Z,33.63
2018-01-11T12:45:57.580Z,28.40
2018-01-11T12:48:27.885Z,35.30
2018-01-11T12:50:58.532Z,24.60
2018-01-11T12:53:28.751Z,28.90
2018-01-11T12:55:58.901Z,30.53
2018-01-11T12:58:29.804Z,32.23
2018-01-11T13:01:00.074Z,29.87
2018-01-11T13:03:30.892Z,26.50
2018-01-11T13:06:01.080Z,25.77
2018-01-11T13:08:31.704Z,31.83
2018-01-11T13:11:02.009Z,30.20
2018-01-11T13:13:32.608Z,25.40
2018-01-11T13:16:02.931Z,28.07
2018-01-11T13:18:33.706Z,25.03
2018-01-11T13:21:03.810Z,31.33
2018-01-11T13:23:36.817Z,31.17
2018-01-11T13:26:07.695Z,33.07
2018-01-11T13:28:37.986Z,32.00
2018-01-11T13:31:10.153Z,34.63
2018-01-11T13:33:40.274Z,36.23
2018-01-11T13:36:10.458Z,34.60
2018-01-11T13:38:41.150Z,34.73
2018-01-11T13:41:11.489Z,37.10
2018-01-11T13:43:42.486Z,35.20
2018-01-11T13:46:12.930Z,32.83
2018-01-11T13:48:43.362Z,32.87
2018-01-11T13:51:14.265Z,35.93
2018-01-11T13:53:44.961Z,38.27
2018-01-11T13:56:15.327Z,36.40
2018-01-11T13:58:46.018Z,34.40
2018-01-11T14:01:18.485Z,35.73
2018-01-11T14:03:48.878Z,35.87
2018-01-11T14:06:19.134Z,34.83
2018-01-11T14:08:49.817Z,33.17
2018-01-11T14:11:20.020Z,36.17
2018-01-11T14:13:51.599Z,38.47
2018-01-11T14:16:23.682Z,43.00
2018-01-11T14:18:53.980Z,36.00
2018-01-11T14:21:24.342Z,33.53
2018-01-11T14:23:55.243Z,33.00
2018-01-11T14:26:25.834Z,34.80
2018-01-11T14:28:56.132Z,33.80
2018-01-11T14:31:27.086Z,36.47
2018-01-11T14:33:57.556Z,31.87
2018-01-11T14:36:28.098Z,31.27
2018-01-11T14:38:58.307Z,42.63
2018-01-11T14:41:29.566Z,33.00
2018-01-11T14:44:00.630Z,32.23
2018-01-11T14:46:32.507Z,31.30
2018-01-11T14:49:03.168Z,44.43
2018-01-11T14:51:34.226Z,33.13
2018-01-11T14:54:04.568Z,27.60
2018-01-11T14:56:35.798Z,28.33
2018-01-11T14:59:06.007Z,25.67
2018-01-11T15:01:36.445Z,25.10
2018-01-11T15:04:07.787Z,27.13
2018-01-11T15:06:38.422Z,30.23
2018-01-11T15:09:08.586Z,32.03
2018-01-11T15:11:39.856Z,24.83
2018-01-11T15:14:11.190Z,25.13
2018-01-11T15:16:42.178Z,28.40
2018-01-11T15:19:12.946Z,28.07
2018-01-11T15:21:43.260Z,25.73
2018-01-11T15:24:14.797Z,24.90
2018-01-11T15:26:44.845Z,29.73
2018-01-11T15:29:15.385Z,28.93
2018-01-11T15:31:45.847Z,25.07
2018-01-11T15:34:16.842Z,22.87
2018-01-11T15:36:47.245Z,28.53
2018-01-11T15:39:17.497Z,22.80
2018-01-11T15:41:47.629Z,30.50
2018-01-11T15:44:18.516Z,32.07
2018-01-11T15:46:48.914Z,30.90
2018-01-11T15:49:20.268Z,25.70
2018-01-11T15:51:53.952Z,27.20
2018-01-11T15:54:25.116Z,27.73
2018-01-11T15:56:55.381Z,36.80
2018-01-11T15:59:26.400Z,26.77
2018-01-11T16:01:58.956Z,32.00
2018-01-11T16:04:31.231Z,26.23
2018-01-11T16:07:01.409Z,27.50
2018-01-11T16:09:31.865Z,28.50
2018-01-11T16:12:03.507Z,34.60
2018-01-11T16:14:34.996Z,28.00
2018-01-11T16:17:06.598Z,29.20
2018-01-11T16:19:40.488Z,26.30
2018-01-11T16:22:11.230Z,32.93
2018-01-11T16:24:41.548Z,27.43
2018-01-11T16:27:12.385Z,29.13
2018-01-11T16:29:43.381Z,27.70
2018-01-11T16:32:15.338Z,28.17
2018-01-11T16:34:45.890Z,31.13
2018-01-11T16:37:17.784Z,32.93
2018-01-11T16:39:48.074Z,27.50
2018-01-11T16:42:19.635Z,29.10
2018-01-11T16:44:49.833Z,27.53
2018-01-11T16:47:20.132Z,30.30
2018-01-11T16:49:53.240Z,32.63
2018-01-11T16:52:24.555Z,30.37
2018-01-11T16:54:55.702Z,35.00
2018-01-11T16:57:27.362Z,27.23
2018-01-11T16:59:58.364Z,28.43
2018-01-11T17:02:29.127Z,31.43
2018-01-11T17:05:00.388Z,29.70
2018-01-11T17:07:32.133Z,28.07
2018-01-11T17:10:03.506Z,26.87
2018-01-11T17:12:33.841Z,29.27
2018-01-11T17:15:04.593Z,25.73
2018-01-11T17:17:35.859Z,33.90
2018-01-11T17:20:06.045Z,25.20
2018-01-11T17:22:37.329Z,32.03
2018-01-11T17:25:07.628Z,23.60
2018-01-11T17:27:37.851Z,29.33
2018-01-11T17:30:10.282Z,25.73
2018-01-11T17:32:41.913Z,27.10
2018-01-11T17:35:12.757Z,26.53
2018-01-11T17:37:43.102Z,29.40
2018-01-11T17:40:13.751Z,27.17
2018-01-11T17:42:43.952Z,37.37
2018-01-11T17:45:14.546Z,31.53
2018-01-11T17:47:45.056Z,27.67
2018-01-11T17:50:16.488Z,28.13
2018-01-11T17:52:47.029Z,26.10
2018-01-11T17:55:17.672Z,30.97
2018-01-11T17:57:48.908Z,24.97
2018-01-11T18:00:20.127Z,28.00
2018-01-11T18:02:50.738Z,32.00
2018-01-11T18:05:22.142Z,29.90
2018-01-11T18:07:53.599Z,29.10
2018-01-11T18:10:24.428Z,25.47
2018-01-11T18:12:56.252Z,24.90
2018-01-11T18:15:27.689Z,34.57
2018-01-11T18:17:59.546Z,28.63
2018-01-11T18:20:30.058Z,31.37
2018-01-11T18:23:01.946Z,39.93
2018-01-11T18:25:33.539Z,30.60
2018-01-11T18:28:04.899Z,31.33
2018-01-11T18:30:35.107Z,31.73
2018-01-11T18:33:07.585Z,30.43
2018-01-11T18:35:38.671Z,32.63
2018-01-11T18:38:09.716Z,31.47
2018-01-11T18:40:42.992Z,32.97
2018-01-11T18:43:14.193Z,34.73
2018-01-11T18:45:48.085Z,31.30
2018-01-11T18:48:19.394Z,31.30
2018-01-11T18:50:50.516Z,39.07
2018-01-11T18:53:21.370Z,36.63
2018-01-11T18:55:52.896Z,38.83
2018-01-11T18:58:24.889Z,39.23
2018-01-11T19:00:56.569Z,38.50
2018-01-11T19:03:28.118Z,40.60
2018-01-11T19:05:59.400Z,40.60
2018-01-11T19:08:29.929Z,40.33
2018-01-11T19:11:01.140Z,31.93
2018-01-11T19:13:31.731Z,40.30
2018-01-11T19:16:01.926Z,37.13
2018-01-11T19:19:43.664Z,43.53
2018-01-11T19:22:38.194Z,35.80
2018-01-11T19:50:22.568Z,29.53
2018-01-11T20:20:23.721Z,30.97
2018-01-11T20:22:54.056Z,34.53
2018-01-11T20:25:24.251Z,34.40
2018-01-11T20:27:54.616Z,36.23
2018-01-11T20:30:25.158Z,44.67
2018-01-11T20:32:57.038Z,47.20
2018-01-11T20:35:27.760Z,56.97
2018-01-11T20:37:59.492Z,50.47
2018-01-11T20:40:30.944Z,50.00
2018-01-11T20:45:24.752Z,66.53
2018-01-11T20:47:55.460Z,51.60
2018-01-11T20:50:26.264Z,51.27
2018-01-11T20:52:57.222Z,61.60
2018-01-11T20:55:28.007Z,47.33
2018-01-11T20:57:59.220Z,53.77
2018-01-11T21:00:30.104Z,46.60
2018-01-11T21:03:00.991Z,45.13
2018-01-11T21:05:31.829Z,47.73
2018-01-11T21:08:02.616Z,45.97
2018-01-11T21:10:32.817Z,35.47
2018-01-11T21:13:03.959Z,42.67
2018-01-11T21:15:35.323Z,33.43
2018-01-11T21:18:06.354Z,40.67
2018-01-11T21:20:37.604Z,36.40
2018-01-11T21:23:09.347Z,36.17
2018-01-11T21:25:40.281Z,40.13
2018-01-11T21:28:10.320Z,38.97
2018-01-11T21:30:42.291Z,43.43
2018-01-11T21:33:12.857Z,39.50
2018-01-11T21:35:43.226Z,33.83
2018-01-11T21:38:14.210Z,34.47
2018-01-11T21:40:45.833Z,33.53
2018-01-11T21:43:18.385Z,29.00
2018-01-11T21:45:50.508Z,30.67
2018-01-11T21:48:21.645Z,41.77
2018-01-11T21:50:52.592Z,30.87
2018-01-11T21:53:23.126Z,30.07
2018-01-11T21:55:53.521Z,40.30
2018-01-11T21:58:23.984Z,37.80
2018-01-11T22:00:55.683Z,34.63
2018-01-11T22:03:27.000Z,33.80
2018-01-11T22:05:57.703Z,34.97
2018-01-11T22:08:28.657Z,36.63
2018-01-11T22:10:58.706Z,34.97
2018-01-11T22:13:30.025Z,36.47
2018-01-11T22:16:00.383Z,37.40
2018-01-11T22:18:30.751Z,39.60
2018-01-11T22:21:01.129Z,41.73
2018-01-11T22:23:33.293Z,34.73
2018-01-11T22:26:03.548Z,41.50
2018-01-11T22:28:34.076Z,41.23
2018-01-11T22:31:04.438Z,41.43
2018-01-11T22:33:34.489Z,40.83
2018-01-11T22:36:05.298Z,37.73
2018-01-11T22:38:36.098Z,38.50
2018-01-11T22:41:06.529Z,38.73
2018-01-11T22:43:36.514Z,32.93
2018-01-11T22:46:07.849Z,40.00
2018-01-11T22:48:38.060Z,33.80
2018-01-11T22:51:08.744Z,51.63
2018-01-11T22:53:38.948Z,43.70
2018-01-11T22:56:09.654Z,42.43
2018-01-11T22:58:40.726Z,40.03
2018-01-11T23:01:11.538Z,41.20
2018-01-11T23:03:42.564Z,40.00
2018-01-11T23:06:13.096Z,35.60
2018-01-11T23:08:43.228Z,36.60
2018-01-11T23:11:18.260Z,43.13
2018-01-11T23:13:56.029Z,49.53
2018-01-11T23:16:33.672Z,34.23
2018-01-11T23:19:05.195Z,32.70
2018-01-11T23:21:35.312Z,44.30
2018-01-11T23:24:06.666Z,37.27
2018-01-11T23:26:37.111Z,35.87
2018-01-11T23:29:08.332Z,35.27
2018-01-11T23:31:38.793Z,32.13
2018-01-11T23:35:38.423Z,33.93
2018-01-11T23:38:11.108Z,37.50
2018-01-11T23:40:41.538Z,39.37
2018-01-11T23:43:12.055Z,39.23
2018-01-11T23:45:42.143Z,37.67
2018-01-11T23:48:13.161Z,38.67
2018-01-11T23:50:43.308Z,32.30
2018-01-11T23:53:13.793Z,41.70
2018-01-11T23:55:44.607Z,35.30
2018-01-11T23:58:15.102Z,38.53
